sensor_id;sensor_type;location;lat;lon;timestamp;pressure;altitude;pressure_sealevel;temperature;humidity
73516;BME280;61763;51.416;5.442;2023-07-13T00:01:13;101327.38;;;13.94;100.00
73516;BME280;61763;51.416;5.442;2023-07-13T00:03:39;101329.06;;;13.96;100.00
73516;BME280;61763;51.416;5.442;2023-07-13T00:06:07;101335.97;;;14.02;100.00
73516;BME280;61763;51.416;5.442;2023-07-13T00:08:33;101330.63;;;14.00;100.00
73516;BME280;61763;51.416;5.442;2023-07-13T00:11:02;101327.84;;;14.02;100.00
73516;BME280;61763;51.416;5.442;2023-07-13T00:13:29;101315.56;;;13.95;100.00
73516;BME280;61763;51.416;5.442;2023-07-13T00:15:57;101321.25;;;13.90;100.00
73516;BME280;61763;51.416;5.442;2023-07-13T00:18:22;101337.53;;;13.90;100.00
73516;BME280;61763;51.416;5.442;2023-07-13T00:20:48;101333.69;;;13.94;100.00
73516;BME280;61763;51.416;5.442;2023-07-13T00:23:14;101338.59;;;13.88;100.00
73516;BME280;61763;51.416;5.442;2023-07-13T00:25:39;101327.81;;;13.86;100.00
73516;BME280;61763;51.416;5.442;2023-07-13T00:28:05;101333.44;;;13.83;100.00
73516;BME280;61763;51.416;5.442;2023-07-13T00:30:30;101326.69;;;13.74;100.00
73516;BME280;61763;51.416;5.442;2023-07-13T00:32:56;101320.63;;;13.69;100.00
73516;BME280;61763;51.416;5.442;2023-07-13T00:35:21;101332.00;;;13.76;100.00
73516;BME280;61763;51.416;5.442;2023-07-13T00:37:47;101325.63;;;13.77;100.00
73516;BME280;61763;51.416;5.442;2023-07-13T00:40:13;101329.59;;;13.87;100.00
73516;BME280;61763;51.416;5.442;2023-07-13T00:42:40;101336.41;;;13.78;100.00
73516;BME280;61763;51.416;5.442;2023-07-13T00:47:37;101338.84;;;13.83;100.00
73516;BME280;61763;51.416;5.442;2023-07-13T00:50:03;101334.56;;;13.79;100.00
73516;BME280;61763;51.416;5.442;2023-07-13T00:52:31;101338.94;;;13.81;100.00
73516;BME280;61763;51.416;5.442;2023-07-13T00:54:58;101343.06;;;13.89;100.00
73516;BME280;61763;51.416;5.442;2023-07-13T00:57:24;101342.25;;;13.87;100.00
73516;BME280;61763;51.416;5.442;2023-07-13T00:59:56;101336.56;;;13.91;100.00
73516;BME280;61763;51.416;5.442;2023-07-13T01:02:24;101336.56;;;13.91;100.00
73516;BME280;61763;51.416;5.442;2023-07-13T01:04:50;101331.84;;;13.95;100.00
73516;BME280;61763;51.416;5.442;2023-07-13T01:07:16;101331.94;;;13.93;100.00
73516;BME280;61763;51.416;5.442;2023-07-13T01:09:43;101338.66;;;13.86;100.00
73516;BME280;61763;51.416;5.442;2023-07-13T01:12:10;101343.72;;;13.76;100.00
73516;BME280;61763;51.416;5.442;2023-07-13T01:14:36;101350.72;;;13.64;100.00
73516;BME280;61763;51.416;5.442;2023-07-13T01:17:02;101352.00;;;13.57;100.00
73516;BME280;61763;51.416;5.442;2023-07-13T01:19:38;101348.13;;;13.45;100.00
73516;BME280;61763;51.416;5.442;2023-07-13T01:22:09;101349.97;;;13.45;100.00
73516;BME280;61763;51.416;5.442;2023-07-13T01:24:39;101357.78;;;13.51;100.00
73516;BME280;61763;51.416;5.442;2023-07-13T01:27:06;101348.25;;;13.60;100.00
73516;BME280;61763;51.416;5.442;2023-07-13T01:29:34;101342.22;;;13.55;100.00
73516;BME280;61763;51.416;5.442;2023-07-13T01:32:00;101342.31;;;13.53;100.00
73516;BME280;61763;51.416;5.442;2023-07-13T01:34:27;101332.16;;;13.57;100.00
73516;BME280;61763;51.416;5.442;2023-07-13T01:36:53;101343.34;;;13.51;100.00
73516;BME280;61763;51.416;5.442;2023-07-13T01:39:22;101345.88;;;13.54;100.00
73516;BME280;61763;51.416;5.442;2023-07-13T01:41:48;101341.03;;;13.60;100.00
73516;BME280;61763;51.416;5.442;2023-07-13T01:44:13;101347.47;;;13.58;100.00
73516;BME280;61763;51.416;5.442;2023-07-13T01:46:39;101349.47;;;13.54;100.00
73516;BME280;61763;51.416;5.442;2023-07-13T01:49:04;101355.44;;;13.61;100.00
73516;BME280;61763;51.416;5.442;2023-07-13T01:51:29;101348.97;;;13.63;100.00
73516;BME280;61763;51.416;5.442;2023-07-13T01:53:55;101350.09;;;13.59;100.00
73516;BME280;61763;51.416;5.442;2023-07-13T01:56:20;101352.09;;;13.56;100.00
73516;BME280;61763;51.416;5.442;2023-07-13T01:58:47;101351.16;;;13.57;100.00
73516;BME280;61763;51.416;5.442;2023-07-13T02:01:13;101362.59;;;13.46;100.00
73516;BME280;61763;51.416;5.442;2023-07-13T02:03:39;101360.13;;;13.41;100.00
73516;BME280;61763;51.416;5.442;2023-07-13T02:06:04;101365.69;;;13.38;100.00
73516;BME280;61763;51.416;5.442;2023-07-13T02:08:31;101365.63;;;13.40;100.00
73516;BME280;61763;51.416;5.442;2023-07-13T02:10:56;101361.00;;;13.42;100.00
73516;BME280;61763;51.416;5.442;2023-07-13T02:13:23;101371.06;;;13.40;100.00
73516;BME280;61763;51.416;5.442;2023-07-13T02:15:52;101375.75;;;13.36;100.00
73516;BME280;61763;51.416;5.442;2023-07-13T02:18:17;101373.25;;;13.31;100.00
73516;BME280;61763;51.416;5.442;2023-07-13T02:20:43;101375.97;;;13.31;100.00
73516;BME280;61763;51.416;5.442;2023-07-13T02:23:09;101367.09;;;13.28;100.00
73516;BME280;61763;51.416;5.442;2023-07-13T02:25:34;101370.63;;;13.30;100.00
73516;BME280;61763;51.416;5.442;2023-07-13T02:27:59;101370.47;;;13.33;100.00
73516;BME280;61763;51.416;5.442;2023-07-13T02:30:25;101366.16;;;13.29;100.00
73516;BME280;61763;51.416;5.442;2023-07-13T02:32:50;101371.66;;;13.27;100.00
73516;BME280;61763;51.416;5.442;2023-07-13T02:35:16;101367.59;;;13.19;100.00
73516;BME280;61763;51.416;5.442;2023-07-13T02:37:41;101377.34;;;13.23;100.00
73516;BME280;61763;51.416;5.442;2023-07-13T02:40:07;101377.09;;;13.10;100.00
73516;BME280;61763;51.416;5.442;2023-07-13T02:42:33;101369.88;;;13.10;100.00
73516;BME280;61763;51.416;5.442;2023-07-13T02:44:59;101369.28;;;13.04;100.00
73516;BME280;61763;51.416;5.442;2023-07-13T02:47:24;101378.06;;;13.09;100.00
73516;BME280;61763;51.416;5.442;2023-07-13T02:49:51;101375.50;;;13.06;100.00
73516;BME280;61763;51.416;5.442;2023-07-13T02:52:16;101372.25;;;12.99;100.00
73516;BME280;61763;51.416;5.442;2023-07-13T02:54:41;101370.56;;;12.96;100.00
73516;BME280;61763;51.416;5.442;2023-07-13T02:57:07;101373.19;;;12.98;100.00
73516;BME280;61763;51.416;5.442;2023-07-13T02:59:32;101370.66;;;12.95;100.00
73516;BME280;61763;51.416;5.442;2023-07-13T03:01:57;101370.91;;;12.90;100.00
73516;BME280;61763;51.416;5.442;2023-07-13T03:04:23;101370.72;;;12.93;100.00
73516;BME280;61763;51.416;5.442;2023-07-13T03:06:48;101386.91;;;12.95;100.00
73516;BME280;61763;51.416;5.442;2023-07-13T03:09:14;101384.13;;;12.96;100.00
73516;BME280;61763;51.416;5.442;2023-07-13T03:11:39;101379.50;;;12.99;100.00
73516;BME280;61763;51.416;5.442;2023-07-13T03:14:05;101380.63;;;12.94;100.00
73516;BME280;61763;51.416;5.442;2023-07-13T03:16:30;101379.25;;;12.86;100.00
73516;BME280;61763;51.416;5.442;2023-07-13T03:18:55;101384.59;;;12.87;100.00
73516;BME280;61763;51.416;5.442;2023-07-13T03:21:21;101386.38;;;12.88;100.00
73516;BME280;61763;51.416;5.442;2023-07-13T03:23:46;101383.66;;;12.88;100.00
73516;BME280;61763;51.416;5.442;2023-07-13T03:26:15;101390.72;;;12.91;100.00
73516;BME280;61763;51.416;5.442;2023-07-13T03:28:41;101395.09;;;12.93;100.00
73516;BME280;61763;51.416;5.442;2023-07-13T03:31:13;101394.31;;;12.91;100.00
73516;BME280;61763;51.416;5.442;2023-07-13T03:33:39;101406.28;;;12.87;100.00
73516;BME280;61763;51.416;5.442;2023-07-13T03:36:06;101409.13;;;12.84;100.00
73516;BME280;61763;51.416;5.442;2023-07-13T03:38:32;101403.25;;;12.93;100.00
73516;BME280;61763;51.416;5.442;2023-07-13T03:40:57;101408.03;;;12.88;100.00
73516;BME280;61763;51.416;5.442;2023-07-13T03:43:24;101406.03;;;12.92;100.00
73516;BME280;61763;51.416;5.442;2023-07-13T03:45:49;101417.03;;;12.89;100.00
73516;BME280;61763;51.416;5.442;2023-07-13T03:48:15;101412.81;;;13.01;100.00
73516;BME280;61763;51.416;5.442;2023-07-13T03:50:40;101408.56;;;12.95;100.00
73516;BME280;61763;51.416;5.442;2023-07-13T03:53:06;101412.97;;;12.97;100.00
73516;BME280;61763;51.416;5.442;2023-07-13T03:55:31;101410.09;;;13.01;100.00
73516;BME280;61763;51.416;5.442;2023-07-13T03:57:59;101410.41;;;12.94;100.00
73516;BME280;61763;51.416;5.442;2023-07-13T04:00:25;101414.72;;;12.99;100.00
73516;BME280;61763;51.416;5.442;2023-07-13T04:02:51;101410.19;;;12.99;100.00
73516;BME280;61763;51.416;5.442;2023-07-13T04:05:17;101421.44;;;13.09;100.00
73516;BME280;61763;51.416;5.442;2023-07-13T04:07:42;101423.72;;;13.17;100.00
73516;BME280;61763;51.416;5.442;2023-07-13T04:10:08;101430.97;;;13.16;100.00
73516;BME280;61763;51.416;5.442;2023-07-13T04:12:33;101425.72;;;13.13;100.00
73516;BME280;61763;51.416;5.442;2023-07-13T04:14:59;101427.63;;;13.28;100.00
73516;BME280;61763;51.416;5.442;2023-07-13T04:17:24;101428.00;;;13.40;100.00
73516;BME280;61763;51.416;5.442;2023-07-13T04:19:50;101432.81;;;13.51;100.00
73516;BME280;61763;51.416;5.442;2023-07-13T04:22:15;101434.34;;;13.56;100.00
73516;BME280;61763;51.416;5.442;2023-07-13T04:24:41;101436.88;;;13.59;100.00
73516;BME280;61763;51.416;5.442;2023-07-13T04:27:06;101431.59;;;13.74;100.00
73516;BME280;61763;51.416;5.442;2023-07-13T04:29:32;101429.75;;;13.74;100.00
73516;BME280;61763;51.416;5.442;2023-07-13T04:31:58;101422.00;;;13.84;100.00
73516;BME280;61763;51.416;5.442;2023-07-13T04:34:23;101432.75;;;13.86;100.00
73516;BME280;61763;51.416;5.442;2023-07-13T04:36:50;101439.44;;;13.96;100.00
73516;BME280;61763;51.416;5.442;2023-07-13T04:39:15;101437.34;;;14.01;100.00
73516;BME280;61763;51.416;5.442;2023-07-13T04:41:41;101440.06;;;14.17;100.00
73516;BME280;61763;51.416;5.442;2023-07-13T04:44:06;101440.69;;;14.38;100.00
73516;BME280;61763;51.416;5.442;2023-07-13T04:46:32;101435.88;;;14.43;100.00
73516;BME280;61763;51.416;5.442;2023-07-13T04:48:57;101434.66;;;14.65;100.00
73516;BME280;61763;51.416;5.442;2023-07-13T04:51:23;101443.78;;;14.64;100.00
73516;BME280;61763;51.416;5.442;2023-07-13T04:53:49;101442.19;;;14.76;100.00
73516;BME280;61763;51.416;5.442;2023-07-13T04:56:14;101440.31;;;14.92;100.00
73516;BME280;61763;51.416;5.442;2023-07-13T04:58:40;101439.69;;;15.03;100.00
73516;BME280;61763;51.416;5.442;2023-07-13T05:01:06;101447.31;;;15.12;100.00
73516;BME280;61763;51.416;5.442;2023-07-13T05:03:32;101437.88;;;15.18;100.00
73516;BME280;61763;51.416;5.442;2023-07-13T05:05:59;101440.44;;;15.21;100.00
73516;BME280;61763;51.416;5.442;2023-07-13T05:08:25;101443.97;;;15.37;100.00
73516;BME280;61763;51.416;5.442;2023-07-13T05:10:51;101450.41;;;15.51;100.00
73516;BME280;61763;51.416;5.442;2023-07-13T05:13:17;101451.19;;;15.53;100.00
73516;BME280;61763;51.416;5.442;2023-07-13T05:15:42;101454.59;;;15.56;100.00
73516;BME280;61763;51.416;5.442;2023-07-13T05:18:08;101453.59;;;15.57;100.00
73516;BME280;61763;51.416;5.442;2023-07-13T05:20:33;101460.63;;;15.76;100.00
73516;BME280;61763;51.416;5.442;2023-07-13T05:23:00;101454.75;;;15.84;100.00
73516;BME280;61763;51.416;5.442;2023-07-13T05:25:25;101456.00;;;15.92;100.00
73516;BME280;61763;51.416;5.442;2023-07-13T05:27:50;101460.00;;;16.01;100.00
73516;BME280;61763;51.416;5.442;2023-07-13T05:30:16;101451.94;;;16.00;100.00
73516;BME280;61763;51.416;5.442;2023-07-13T05:32:41;101469.63;;;16.07;100.00
73516;BME280;61763;51.416;5.442;2023-07-13T05:35:07;101466.59;;;15.97;100.00
73516;BME280;61763;51.416;5.442;2023-07-13T05:37:34;101468.38;;;15.98;100.00
73516;BME280;61763;51.416;5.442;2023-07-13T05:39:59;101472.16;;;15.96;100.00
73516;BME280;61763;51.416;5.442;2023-07-13T05:42:24;101469.72;;;15.91;100.00
73516;BME280;61763;51.416;5.442;2023-07-13T05:44:51;101474.28;;;15.90;100.00
73516;BME280;61763;51.416;5.442;2023-07-13T05:47:16;101473.59;;;15.87;100.00
73516;BME280;61763;51.416;5.442;2023-07-13T05:49:42;101477.88;;;15.91;100.00
73516;BME280;61763;51.416;5.442;2023-07-13T05:52:07;101479.44;;;15.95;100.00
73516;BME280;61763;51.416;5.442;2023-07-13T05:54:33;101483.72;;;15.99;100.00
73516;BME280;61763;51.416;5.442;2023-07-13T05:56:58;101474.88;;;15.96;100.00
73516;BME280;61763;51.416;5.442;2023-07-13T05:59:23;101490.25;;;16.11;100.00
73516;BME280;61763;51.416;5.442;2023-07-13T06:01:49;101481.69;;;16.17;100.00
73516;BME280;61763;51.416;5.442;2023-07-13T06:04:14;101483.69;;;16.42;100.00
73516;BME280;61763;51.416;5.442;2023-07-13T06:06:40;101486.13;;;16.33;100.00
73516;BME280;61763;51.416;5.442;2023-07-13T06:09:05;101488.69;;;16.36;100.00
73516;BME280;61763;51.416;5.442;2023-07-13T06:11:30;101490.91;;;16.43;100.00
73516;BME280;61763;51.416;5.442;2023-07-13T06:13:57;101498.56;;;16.51;100.00
73516;BME280;61763;51.416;5.442;2023-07-13T06:16:23;101502.88;;;16.41;100.00
73516;BME280;61763;51.416;5.442;2023-07-13T06:18:48;101496.66;;;16.39;100.00
73516;BME280;61763;51.416;5.442;2023-07-13T06:21:17;101500.13;;;16.41;100.00
73516;BME280;61763;51.416;5.442;2023-07-13T06:23:44;101494.69;;;16.41;100.00
73516;BME280;61763;51.416;5.442;2023-07-13T06:26:10;101501.88;;;16.56;100.00
73516;BME280;61763;51.416;5.442;2023-07-13T06:28:37;101498.53;;;16.80;100.00
73516;BME280;61763;51.416;5.442;2023-07-13T06:31:08;101505.25;;;16.89;100.00
73516;BME280;61763;51.416;5.442;2023-07-13T06:33:34;101506.09;;;16.89;100.00
73516;BME280;61763;51.416;5.442;2023-07-13T06:36:00;101505.34;;;16.87;100.00
73516;BME280;61763;51.416;5.442;2023-07-13T06:38:26;101505.47;;;16.98;100.00
73516;BME280;61763;51.416;5.442;2023-07-13T06:40:51;101511.72;;;16.86;100.00
73516;BME280;61763;51.416;5.442;2023-07-13T06:43:17;101527.16;;;16.73;100.00
73516;BME280;61763;51.416;5.442;2023-07-13T06:45:45;101507.97;;;16.74;100.00
73516;BME280;61763;51.416;5.442;2023-07-13T06:48:15;101516.91;;;16.91;100.00
73516;BME280;61763;51.416;5.442;2023-07-13T06:50:42;101517.97;;;16.88;100.00
73516;BME280;61763;51.416;5.442;2023-07-13T06:53:08;101523.41;;;17.03;100.00
73516;BME280;61763;51.416;5.442;2023-07-13T06:55:33;101523.78;;;17.24;100.00
73516;BME280;61763;51.416;5.442;2023-07-13T06:57:59;101528.25;;;17.52;100.00
73516;BME280;61763;51.416;5.442;2023-07-13T07:00:27;101525.81;;;17.47;100.00
73516;BME280;61763;51.416;5.442;2023-07-13T07:02:52;101526.13;;;17.43;100.00
73516;BME280;61763;51.416;5.442;2023-07-13T07:05:17;101531.00;;;17.25;100.00
73516;BME280;61763;51.416;5.442;2023-07-13T07:07:51;101532.03;;;17.37;100.00
73516;BME280;61763;51.416;5.442;2023-07-13T07:10:17;101520.56;;;17.44;100.00
73516;BME280;61763;51.416;5.442;2023-07-13T07:12:43;101526.59;;;17.49;100.00
73516;BME280;61763;51.416;5.442;2023-07-13T07:15:08;101537.31;;;17.52;100.00
73516;BME280;61763;51.416;5.442;2023-07-13T07:17:34;101531.41;;;17.59;100.00
73516;BME280;61763;51.416;5.442;2023-07-13T07:20:00;101537.94;;;17.43;100.00
73516;BME280;61763;51.416;5.442;2023-07-13T07:22:26;101529.22;;;17.51;100.00
73516;BME280;61763;51.416;5.442;2023-07-13T07:24:53;101527.75;;;17.85;100.00
73516;BME280;61763;51.416;5.442;2023-07-13T07:27:19;101538.94;;;17.95;100.00
73516;BME280;61763;51.416;5.442;2023-07-13T07:29:44;101535.44;;;18.06;100.00
73516;BME280;61763;51.416;5.442;2023-07-13T07:32:09;101530.09;;;18.17;100.00
73516;BME280;61763;51.416;5.442;2023-07-13T07:34:35;101537.72;;;18.25;100.00
73516;BME280;61763;51.416;5.442;2023-07-13T07:37:01;101530.59;;;18.48;100.00
73516;BME280;61763;51.416;5.442;2023-07-13T07:39:27;101540.00;;;18.57;100.00
73516;BME280;61763;51.416;5.442;2023-07-13T07:41:52;101534.28;;;18.60;100.00
73516;BME280;61763;51.416;5.442;2023-07-13T07:44:18;101526.41;;;18.68;100.00
73516;BME280;61763;51.416;5.442;2023-07-13T07:46:43;101527.16;;;18.70;100.00
73516;BME280;61763;51.416;5.442;2023-07-13T07:49:09;101539.44;;;18.52;100.00
73516;BME280;61763;51.416;5.442;2023-07-13T07:51:34;101533.69;;;18.81;100.00
73516;BME280;61763;51.416;5.442;2023-07-13T07:53:59;101540.44;;;19.01;100.00
73516;BME280;61763;51.416;5.442;2023-07-13T07:56:25;101529.50;;;19.01;100.00
73516;BME280;61763;51.416;5.442;2023-07-13T07:58:50;101540.03;;;19.42;100.00
73516;BME280;61763;51.416;5.442;2023-07-13T08:01:16;101546.34;;;19.67;100.00
73516;BME280;61763;51.416;5.442;2023-07-13T08:03:41;101543.97;;;20.09;100.00
73516;BME280;61763;51.416;5.442;2023-07-13T08:06:07;101533.28;;;20.86;100.00
73516;BME280;61763;51.416;5.442;2023-07-13T08:08:32;101528.91;;;20.83;100.00
73516;BME280;61763;51.416;5.442;2023-07-13T08:11:02;101547.31;;;21.04;100.00
73516;BME280;61763;51.416;5.442;2023-07-13T08:13:28;101536.00;;;20.97;100.00
73516;BME280;61763;51.416;5.442;2023-07-13T08:15:53;101542.09;;;21.00;100.00
73516;BME280;61763;51.416;5.442;2023-07-13T08:18:18;101529.25;;;21.01;100.00
73516;BME280;61763;51.416;5.442;2023-07-13T08:20:44;101533.72;;;21.02;100.00
73516;BME280;61763;51.416;5.442;2023-07-13T08:23:10;101533.00;;;20.89;100.00
73516;BME280;61763;51.416;5.442;2023-07-13T08:25:35;101538.41;;;21.23;100.00
73516;BME280;61763;51.416;5.442;2023-07-13T08:28:02;101541.16;;;21.23;100.00
73516;BME280;61763;51.416;5.442;2023-07-13T08:30:28;101542.97;;;21.01;100.00
73516;BME280;61763;51.416;5.442;2023-07-13T08:32:53;101540.81;;;21.16;100.00
73516;BME280;61763;51.416;5.442;2023-07-13T08:35:19;101542.94;;;21.12;100.00
73516;BME280;61763;51.416;5.442;2023-07-13T08:37:44;101540.59;;;21.40;100.00
73516;BME280;61763;51.416;5.442;2023-07-13T08:40:11;101546.31;;;21.48;100.00
73516;BME280;61763;51.416;5.442;2023-07-13T08:42:45;101541.66;;;21.81;100.00
73516;BME280;61763;51.416;5.442;2023-07-13T08:47:54;101539.59;;;21.74;100.00
73516;BME280;61763;51.416;5.442;2023-07-13T08:50:25;101534.03;;;22.06;100.00
73516;BME280;61763;51.416;5.442;2023-07-13T08:52:52;101538.97;;;21.70;100.00
73516;BME280;61763;51.416;5.442;2023-07-13T08:55:31;101544.94;;;21.54;100.00
73516;BME280;61763;51.416;5.442;2023-07-13T08:58:10;101544.38;;;21.72;100.00
73516;BME280;61763;51.416;5.442;2023-07-13T09:00:58;101540.38;;;21.32;100.00
73516;BME280;61763;51.416;5.442;2023-07-13T09:03:35;101530.66;;;20.84;100.00
73516;BME280;61763;51.416;5.442;2023-07-13T09:06:02;101539.88;;;21.38;100.00
73516;BME280;61763;51.416;5.442;2023-07-13T09:13:45;101541.38;;;20.87;100.00
73516;BME280;61763;51.416;5.442;2023-07-13T09:16:13;101534.13;;;20.86;100.00
73516;BME280;61763;51.416;5.442;2023-07-13T09:18:43;101542.19;;;21.22;100.00
73516;BME280;61763;51.416;5.442;2023-07-13T09:21:15;101531.34;;;22.16;100.00
73516;BME280;61763;51.416;5.442;2023-07-13T09:23:41;101533.28;;;22.66;100.00
73516;BME280;61763;51.416;5.442;2023-07-13T09:26:12;101531.88;;;22.62;100.00
73516;BME280;61763;51.416;5.442;2023-07-13T09:28:41;101528.81;;;23.35;96.28
73516;BME280;61763;51.416;5.442;2023-07-13T09:31:13;101536.22;;;22.74;98.94
73516;BME280;61763;51.416;5.442;2023-07-13T09:33:39;101526.91;;;22.03;100.00
73516;BME280;61763;51.416;5.442;2023-07-13T09:36:21;101537.03;;;21.82;100.00
73516;BME280;61763;51.416;5.442;2023-07-13T09:41:45;101514.50;;;22.71;100.00
73516;BME280;61763;51.416;5.442;2023-07-13T09:44:14;101528.75;;;23.05;97.97
73516;BME280;61763;51.416;5.442;2023-07-13T09:47:22;101536.47;;;22.61;98.14
73516;BME280;61763;51.416;5.442;2023-07-13T09:49:56;101533.78;;;21.88;100.00
73516;BME280;61763;51.416;5.442;2023-07-13T09:52:24;101531.09;;;21.77;100.00
73516;BME280;61763;51.416;5.442;2023-07-13T09:54:51;101536.97;;;21.93;100.00
73516;BME280;61763;51.416;5.442;2023-07-13T09:57:23;101543.69;;;21.79;100.00
73516;BME280;61763;51.416;5.442;2023-07-13T09:59:51;101538.78;;;21.83;100.00
73516;BME280;61763;51.416;5.442;2023-07-13T10:04:59;101540.59;;;22.86;100.00
73516;BME280;61763;51.416;5.442;2023-07-13T10:07:25;101540.13;;;23.61;100.00
73516;BME280;61763;51.416;5.442;2023-07-13T10:09:54;101531.25;;;24.16;97.46
73516;BME280;61763;51.416;5.442;2023-07-13T10:12:21;101533.88;;;23.69;94.68
73516;BME280;61763;51.416;5.442;2023-07-13T10:14:51;101535.78;;;23.29;94.92
73516;BME280;61763;51.416;5.442;2023-07-13T10:17:26;101528.69;;;23.36;99.43
73516;BME280;61763;51.416;5.442;2023-07-13T10:19:57;101533.91;;;23.88;94.23
73516;BME280;61763;51.416;5.442;2023-07-13T10:22:42;101532.94;;;24.27;79.94
73516;BME280;61763;51.416;5.442;2023-07-13T10:25:18;101530.19;;;24.64;82.51
73516;BME280;61763;51.416;5.442;2023-07-13T10:27:45;101538.06;;;24.49;79.82
73516;BME280;61763;51.416;5.442;2023-07-13T10:30:21;101533.25;;;24.61;80.10
73516;BME280;61763;51.416;5.442;2023-07-13T10:32:49;101546.72;;;24.37;80.61
73516;BME280;61763;51.416;5.442;2023-07-13T10:35:17;101540.22;;;24.65;81.32
73516;BME280;61763;51.416;5.442;2023-07-13T10:37:55;101532.72;;;24.10;80.82
73516;BME280;61763;51.416;5.442;2023-07-13T10:40:27;101544.91;;;23.98;88.75
73516;BME280;61763;51.416;5.442;2023-07-13T10:42:56;101540.75;;;24.31;79.37
73516;BME280;61763;51.416;5.442;2023-07-13T10:45:23;101538.84;;;23.65;79.90
73516;BME280;61763;51.416;5.442;2023-07-13T10:47:51;101540.28;;;23.50;79.38
73516;BME280;61763;51.416;5.442;2023-07-13T10:50:23;101541.59;;;23.46;81.24
73516;BME280;61763;51.416;5.442;2023-07-13T10:53:02;101559.63;;;22.89;86.95
73516;BME280;61763;51.416;5.442;2023-07-13T10:56:19;101556.06;;;23.18;92.39
73516;BME280;61763;51.416;5.442;2023-07-13T10:58:32;101560.84;;;23.26;97.16
73516;BME280;61763;51.416;5.442;2023-07-13T11:03:35;101552.47;;;23.96;89.82
73516;BME280;61763;51.416;5.442;2023-07-13T11:06:12;101542.31;;;23.48;83.32
73516;BME280;61763;51.416;5.442;2023-07-13T11:18:51;101554.81;;;22.91;85.29
73516;BME280;61763;51.416;5.442;2023-07-13T11:23:47;101548.44;;;22.81;87.04
73516;BME280;61763;51.416;5.442;2023-07-13T11:31:53;101541.44;;;23.86;77.98
73516;BME280;61763;51.416;5.442;2023-07-13T11:34:36;101544.28;;;24.61;73.07
73516;BME280;61763;51.416;5.442;2023-07-13T11:37:03;101530.72;;;24.78;64.30
73516;BME280;61763;51.416;5.442;2023-07-13T11:39:31;101531.03;;;24.27;68.08
73516;BME280;61763;51.416;5.442;2023-07-13T11:42:01;101543.97;;;24.27;73.06
73516;BME280;61763;51.416;5.442;2023-07-13T11:44:33;101537.91;;;24.13;74.26
73516;BME280;61763;51.416;5.442;2023-07-13T11:47:08;101533.75;;;24.47;75.24
73516;BME280;61763;51.416;5.442;2023-07-13T11:49:43;101538.06;;;24.87;71.47
73516;BME280;61763;51.416;5.442;2023-07-13T11:52:33;101535.34;;;25.77;63.88
73516;BME280;61763;51.416;5.442;2023-07-13T11:55:01;101542.03;;;26.11;60.64
73516;BME280;61763;51.416;5.442;2023-07-13T11:57:33;101543.88;;;25.66;59.02
73516;BME280;61763;51.416;5.442;2023-07-13T12:00:04;101543.44;;;25.34;61.53
73516;BME280;61763;51.416;5.442;2023-07-13T12:02:36;101549.94;;;25.15;59.99
73516;BME280;61763;51.416;5.442;2023-07-13T12:05:04;101537.03;;;25.70;63.25
73516;BME280;61763;51.416;5.442;2023-07-13T12:07:33;101549.78;;;26.07;59.70
73516;BME280;61763;51.416;5.442;2023-07-13T12:12:34;101542.06;;;25.75;56.84
73516;BME280;61763;51.416;5.442;2023-07-13T12:15:00;101551.06;;;25.59;54.37
73516;BME280;61763;51.416;5.442;2023-07-13T12:17:25;101559.75;;;26.00;54.45
73516;BME280;61763;51.416;5.442;2023-07-13T12:19:52;101553.63;;;26.75;51.81
73516;BME280;61763;51.416;5.442;2023-07-13T12:22:19;101552.28;;;26.18;49.37
73516;BME280;61763;51.416;5.442;2023-07-13T12:24:45;101562.31;;;26.80;51.05
73516;BME280;61763;51.416;5.442;2023-07-13T12:27:20;101560.06;;;26.75;50.02
73516;BME280;61763;51.416;5.442;2023-07-13T12:32:59;101565.50;;;26.07;51.40
73516;BME280;61763;51.416;5.442;2023-07-13T12:35:26;101564.78;;;25.86;51.60
73516;BME280;61763;51.416;5.442;2023-07-13T12:37:56;101555.94;;;25.11;54.18
73516;BME280;61763;51.416;5.442;2023-07-13T12:40:28;101578.75;;;24.47;58.36
73516;BME280;61763;51.416;5.442;2023-07-13T12:42:56;101580.34;;;23.93;61.35
73516;BME280;61763;51.416;5.442;2023-07-13T12:45:26;101578.72;;;23.71;66.23
73516;BME280;61763;51.416;5.442;2023-07-13T12:48:05;101580.28;;;23.34;67.97
73516;BME280;61763;51.416;5.442;2023-07-13T12:50:38;101593.16;;;23.14;68.83
73516;BME280;61763;51.416;5.442;2023-07-13T12:53:12;101587.53;;;22.54;73.60
73516;BME280;61763;51.416;5.442;2023-07-13T12:55:50;101595.91;;;22.43;72.42
73516;BME280;61763;51.416;5.442;2023-07-13T13:00:55;101592.25;;;21.79;78.09
73516;BME280;61763;51.416;5.442;2023-07-13T13:03:33;101588.94;;;21.64;87.19
73516;BME280;61763;51.416;5.442;2023-07-13T13:08:40;101607.75;;;21.36;100.00
73516;BME280;61763;51.416;5.442;2023-07-13T13:11:08;101625.56;;;20.98;100.00
73516;BME280;61763;51.416;5.442;2023-07-13T13:13:34;101615.19;;;20.90;100.00
73516;BME280;61763;51.416;5.442;2023-07-13T13:18:51;101613.66;;;20.41;100.00
73516;BME280;61763;51.416;5.442;2023-07-13T13:21:17;101622.34;;;20.23;100.00
73516;BME280;61763;51.416;5.442;2023-07-13T13:23:43;101616.13;;;20.33;100.00
73516;BME280;61763;51.416;5.442;2023-07-13T13:26:12;101623.13;;;20.59;100.00
73516;BME280;61763;51.416;5.442;2023-07-13T13:28:37;101628.53;;;20.72;100.00
73516;BME280;61763;51.416;5.442;2023-07-13T13:31:03;101628.91;;;21.02;100.00
73516;BME280;61763;51.416;5.442;2023-07-13T13:33:28;101627.28;;;20.99;100.00
73516;BME280;61763;51.416;5.442;2023-07-13T13:35:55;101626.63;;;21.29;100.00